sensor_id;sensor_type;location;lat;lon;timestamp;temperature;humidity
6496;DHT22;3281;47.658;9.166;2022-12-05T00:00:10;4.70;1.00
6496;DHT22;3281;47.658;9.166;2022-12-05T00:02:36;4.70;1.00
6496;DHT22;3281;47.658;9.166;2022-12-05T00:05:04;4.80;1.00
6496;DHT22;3281;47.658;9.166;2022-12-05T00:07:30;4.70;1.00
6496;DHT22;3281;47.658;9.166;2022-12-05T00:09:57;4.80;1.00
6496;DHT22;3281;47.658;9.166;2022-12-05T00:12:24;4.80;1.00
6496;DHT22;3281;47.658;9.166;2022-12-05T00:14:51;4.60;1.00
6496;DHT22;3281;47.658;9.166;2022-12-05T00:17:19;4.60;1.00
6496;DHT22;3281;47.658;9.166;2022-12-05T00:19:46;4.60;1.00
6496;DHT22;3281;47.658;9.166;2022-12-05T00:22:12;4.70;1.00
6496;DHT22;3281;47.658;9.166;2022-12-05T00:24:39;4.60;1.00
6496;DHT22;3281;47.658;9.166;2022-12-05T00:27:06;4.70;1.00
6496;DHT22;3281;47.658;9.166;2022-12-05T00:29:33;4.70;1.00
6496;DHT22;3281;47.658;9.166;2022-12-05T00:32:00;4.80;1.00
6496;DHT22;3281;47.658;9.166;2022-12-05T00:34:28;4.80;1.00
6496;DHT22;3281;47.658;9.166;2022-12-05T00:36:54;4.80;1.00
6496;DHT22;3281;47.658;9.166;2022-12-05T00:39:21;4.80;1.00
6496;DHT22;3281;47.658;9.166;2022-12-05T00:41:48;4.80;1.00
6496;DHT22;3281;47.658;9.166;2022-12-05T00:44:15;4.90;1.00
6496;DHT22;3281;47.658;9.166;2022-12-05T00:46:41;4.90;1.00
6496;DHT22;3281;47.658;9.166;2022-12-05T00:49:10;4.90;1.00
6496;DHT22;3281;47.658;9.166;2022-12-05T00:51:40;4.80;1.00
6496;DHT22;3281;47.658;9.166;2022-12-05T00:54:09;4.80;1.00
6496;DHT22;3281;47.658;9.166;2022-12-05T00:56:37;4.70;1.00
6496;DHT22;3281;47.658;9.166;2022-12-05T00:59:04;4.80;1.00
6496;DHT22;3281;47.658;9.166;2022-12-05T01:01:33;4.70;1.00
6496;DHT22;3281;47.658;9.166;2022-12-05T01:04:05;4.70;1.00
6496;DHT22;3281;47.658;9.166;2022-12-05T01:06:32;4.80;1.00
6496;DHT22;3281;47.658;9.166;2022-12-05T01:09:02;4.80;1.00
6496;DHT22;3281;47.658;9.166;2022-12-05T01:11:29;4.80;1.00
6496;DHT22;3281;47.658;9.166;2022-12-05T01:13:56;4.90;1.00
6496;DHT22;3281;47.658;9.166;2022-12-05T01:16:26;5.00;1.00
6496;DHT22;3281;47.658;9.166;2022-12-05T01:18:53;5.00;1.00
6496;DHT22;3281;47.658;9.166;2022-12-05T01:21:21;5.10;1.00
6496;DHT22;3281;47.658;9.166;2022-12-05T01:23:48;4.90;1.00
6496;DHT22;3281;47.658;9.166;2022-12-05T01:26:19;5.00;1.00
6496;DHT22;3281;47.658;9.166;2022-12-05T01:28:46;5.20;1.00
6496;DHT22;3281;47.658;9.166;2022-12-05T01:31:17;5.20;1.00
6496;DHT22;3281;47.658;9.166;2022-12-05T01:33:46;5.20;1.00
6496;DHT22;3281;47.658;9.166;2022-12-05T01:36:13;5.20;1.00
6496;DHT22;3281;47.658;9.166;2022-12-05T01:38:41;5.10;1.00
6496;DHT22;3281;47.658;9.166;2022-12-05T01:41:11;5.20;1.00
6496;DHT22;3281;47.658;9.166;2022-12-05T01:43:57;5.10;1.00
6496;DHT22;3281;47.658;9.166;2022-12-05T01:46:25;5.10;1.00
6496;DHT22;3281;47.658;9.166;2022-12-05T01:48:55;5.10;1.00
6496;DHT22;3281;47.658;9.166;2022-12-05T01:51:23;5.20;1.00
6496;DHT22;3281;47.658;9.166;2022-12-05T01:53:50;5.20;1.00
6496;DHT22;3281;47.658;9.166;2022-12-05T01:56:18;5.20;1.00
6496;DHT22;3281;47.658;9.166;2022-12-05T01:58:46;5.20;1.00
6496;DHT22;3281;47.658;9.166;2022-12-05T02:01:15;5.20;1.00
6496;DHT22;3281;47.658;9.166;2022-12-05T02:03:45;5.20;1.00
6496;DHT22;3281;47.658;9.166;2022-12-05T02:06:12;5.30;1.00
6496;DHT22;3281;47.658;9.166;2022-12-05T02:08:40;5.20;1.00
6496;DHT22;3281;47.658;9.166;2022-12-05T02:11:08;5.30;1.00
6496;DHT22;3281;47.658;9.166;2022-12-05T02:16:42;5.20;1.00
6496;DHT22;3281;47.658;9.166;2022-12-05T02:28:13;5.30;1.00
6496;DHT22;3281;47.658;9.166;2022-12-05T02:30:48;5.20;1.00
6496;DHT22;3281;47.658;9.166;2022-12-05T02:33:20;5.20;1.00
6496;DHT22;3281;47.658;9.166;2022-12-05T02:35:53;5.20;1.00
6496;DHT22;3281;47.658;9.166;2022-12-05T02:38:27;5.30;1.00
6496;DHT22;3281;47.658;9.166;2022-12-05T02:41:03;5.30;1.00
6496;DHT22;3281;47.658;9.166;2022-12-05T02:43:37;5.40;1.00
6496;DHT22;3281;47.658;9.166;2022-12-05T02:46:10;5.40;1.00
6496;DHT22;3281;47.658;9.166;2022-12-05T02:48:38;5.40;1.00
6496;DHT22;3281;47.658;9.166;2022-12-05T02:51:07;5.40;1.00
6496;DHT22;3281;47.658;9.166;2022-12-05T02:53:36;5.40;1.00
6496;DHT22;3281;47.658;9.166;2022-12-05T02:56:04;5.50;1.00
6496;DHT22;3281;47.658;9.166;2022-12-05T02:58:33;5.40;1.00
6496;DHT22;3281;47.658;9.166;2022-12-05T03:01:01;5.20;1.00
6496;DHT22;3281;47.658;9.166;2022-12-05T03:03:31;5.30;1.00
6496;DHT22;3281;47.658;9.166;2022-12-05T03:06:02;5.40;1.00
6496;DHT22;3281;47.658;9.166;2022-12-05T03:08:32;5.40;1.00
6496;DHT22;3281;47.658;9.166;2022-12-05T03:11:02;5.50;1.00
6496;DHT22;3281;47.658;9.166;2022-12-05T03:13:33;5.50;1.00
6496;DHT22;3281;47.658;9.166;2022-12-05T03:16:04;5.40;1.00
6496;DHT22;3281;47.658;9.166;2022-12-05T03:18:38;5.40;1.00
6496;DHT22;3281;47.658;9.166;2022-12-05T03:21:14;5.40;1.00
6496;DHT22;3281;47.658;9.166;2022-12-05T03:23:47;5.30;1.00
6496;DHT22;3281;47.658;9.166;2022-12-05T03:26:19;5.30;1.00
6496;DHT22;3281;47.658;9.166;2022-12-05T03:28:54;5.40;1.00
6496;DHT22;3281;47.658;9.166;2022-12-05T03:31:32;5.30;1.00
6496;DHT22;3281;47.658;9.166;2022-12-05T03:34:02;5.30;1.00
6496;DHT22;3281;47.658;9.166;2022-12-05T03:36:38;5.30;1.00
6496;DHT22;3281;47.658;9.166;2022-12-05T03:39:10;5.40;1.00
6496;DHT22;3281;47.658;9.166;2022-12-05T03:41:41;5.50;1.00
6496;DHT22;3281;47.658;9.166;2022-12-05T03:44:15;5.50;1.00
6496;DHT22;3281;47.658;9.166;2022-12-05T03:46:46;5.50;1.00
6496;DHT22;3281;47.658;9.166;2022-12-05T03:49:20;5.40;1.00
6496;DHT22;3281;47.658;9.166;2022-12-05T03:51:54;5.40;1.00
6496;DHT22;3281;47.658;9.166;2022-12-05T03:54:24;5.30;1.00
6496;DHT22;3281;47.658;9.166;2022-12-05T03:56:55;5.30;1.00
6496;DHT22;3281;47.658;9.166;2022-12-05T03:59:31;5.40;1.00
6496;DHT22;3281;47.658;9.166;2022-12-05T04:02:04;5.40;1.00
6496;DHT22;3281;47.658;9.166;2022-12-05T04:04:37;5.50;1.00
6496;DHT22;3281;47.658;9.166;2022-12-05T04:07:06;5.50;1.00
6496;DHT22;3281;47.658;9.166;2022-12-05T04:09:36;5.50;1.00
6496;DHT22;3281;47.658;9.166;2022-12-05T04:12:08;5.50;1.00
6496;DHT22;3281;47.658;9.166;2022-12-05T04:14:40;5.50;1.00
6496;DHT22;3281;47.658;9.166;2022-12-05T04:17:11;5.50;1.00
6496;DHT22;3281;47.658;9.166;2022-12-05T04:19:45;5.40;1.00
6496;DHT22;3281;47.658;9.166;2022-12-05T04:22:31;5.50;1.00
6496;DHT22;3281;47.658;9.166;2022-12-05T04:25:00;5.50;1.00
6496;DHT22;3281;47.658;9.166;2022-12-05T04:27:49;5.50;1.00
6496;DHT22;3281;47.658;9.166;2022-12-05T04:30:21;5.60;1.00
6496;DHT22;3281;47.658;9.166;2022-12-05T04:32:53;5.60;1.00
6496;DHT22;3281;47.658;9.166;2022-12-05T04:35:24;5.60;1.00
6496;DHT22;3281;47.658;9.166;2022-12-05T04:37:57;5.60;1.00
6496;DHT22;3281;47.658;9.166;2022-12-05T04:40:29;5.60;1.00
6496;DHT22;3281;47.658;9.166;2022-12-05T04:43:01;5.50;1.00
6496;DHT22;3281;47.658;9.166;2022-12-05T04:45:29;5.50;1.00
6496;DHT22;3281;47.658;9.166;2022-12-05T04:48:00;5.60;1.00
6496;DHT22;3281;47.658;9.166;2022-12-05T04:50:32;5.60;1.00
6496;DHT22;3281;47.658;9.166;2022-12-05T04:53:01;5.60;1.00
6496;DHT22;3281;47.658;9.166;2022-12-05T04:55:30;5.50;1.00
6496;DHT22;3281;47.658;9.166;2022-12-05T04:58:04;5.60;1.00
6496;DHT22;3281;47.658;9.166;2022-12-05T05:00:37;5.70;1.00
6496;DHT22;3281;47.658;9.166;2022-12-05T05:03:07;5.60;1.00
6496;DHT22;3281;47.658;9.166;2022-12-05T05:05:38;5.60;1.00
6496;DHT22;3281;47.658;9.166;2022-12-05T05:08:15;5.60;1.00
6496;DHT22;3281;47.658;9.166;2022-12-05T05:10:49;5.60;1.00
6496;DHT22;3281;47.658;9.166;2022-12-05T05:13:17;5.60;1.00
6496;DHT22;3281;47.658;9.166;2022-12-05T05:15:44;5.70;1.00
6496;DHT22;3281;47.658;9.166;2022-12-05T05:18:11;5.70;1.00
6496;DHT22;3281;47.658;9.166;2022-12-05T05:20:39;5.70;1.00
6496;DHT22;3281;47.658;9.166;2022-12-05T05:23:06;5.70;1.00
6496;DHT22;3281;47.658;9.166;2022-12-05T05:25:32;5.70;1.00
6496;DHT22;3281;47.658;9.166;2022-12-05T05:27:59;5.70;1.00
6496;DHT22;3281;47.658;9.166;2022-12-05T05:30:26;5.70;1.00
6496;DHT22;3281;47.658;9.166;2022-12-05T05:32:53;5.80;1.00
6496;DHT22;3281;47.658;9.166;2022-12-05T05:35:20;5.80;1.00
6496;DHT22;3281;47.658;9.166;2022-12-05T05:37:48;5.60;1.00
6496;DHT22;3281;47.658;9.166;2022-12-05T05:40:15;5.60;1.00
6496;DHT22;3281;47.658;9.166;2022-12-05T05:42:42;5.60;1.00
6496;DHT22;3281;47.658;9.166;2022-12-05T05:45:10;5.60;1.00
6496;DHT22;3281;47.658;9.166;2022-12-05T05:47:37;5.50;1.00
6496;DHT22;3281;47.658;9.166;2022-12-05T05:50:05;5.50;1.00
6496;DHT22;3281;47.658;9.166;2022-12-05T05:52:33;5.50;1.00
6496;DHT22;3281;47.658;9.166;2022-12-05T05:55:02;5.50;1.00
6496;DHT22;3281;47.658;9.166;2022-12-05T05:57:29;5.50;1.00
6496;DHT22;3281;47.658;9.166;2022-12-05T05:59:56;5.50;1.00
6496;DHT22;3281;47.658;9.166;2022-12-05T06:02:23;5.50;1.00
6496;DHT22;3281;47.658;9.166;2022-12-05T06:04:50;5.60;1.00
6496;DHT22;3281;47.658;9.166;2022-12-05T06:07:16;5.60;1.00
6496;DHT22;3281;47.658;9.166;2022-12-05T06:09:43;5.50;1.00
6496;DHT22;3281;47.658;9.166;2022-12-05T06:12:11;5.40;1.00
6496;DHT22;3281;47.658;9.166;2022-12-05T06:14:38;5.40;1.00
6496;DHT22;3281;47.658;9.166;2022-12-05T06:17:05;5.40;1.00
6496;DHT22;3281;47.658;9.166;2022-12-05T06:19:31;5.60;1.00
6496;DHT22;3281;47.658;9.166;2022-12-05T06:21:58;5.60;1.00
6496;DHT22;3281;47.658;9.166;2022-12-05T06:24:25;5.60;1.00
6496;DHT22;3281;47.658;9.166;2022-12-05T06:26:52;5.60;1.00
6496;DHT22;3281;47.658;9.166;2022-12-05T06:29:20;5.60;1.00
6496;DHT22;3281;47.658;9.166;2022-12-05T06:31:47;5.50;1.00
6496;DHT22;3281;47.658;9.166;2022-12-05T06:34:13;5.60;1.00
6496;DHT22;3281;47.658;9.166;2022-12-05T06:36:40;5.50;1.00
6496;DHT22;3281;47.658;9.166;2022-12-05T06:39:07;5.60;1.00
6496;DHT22;3281;47.658;9.166;2022-12-05T06:41:33;5.60;1.00
6496;DHT22;3281;47.658;9.166;2022-12-05T06:44:00;5.60;1.00
6496;DHT22;3281;47.658;9.166;2022-12-05T06:46:28;5.70;1.00
6496;DHT22;3281;47.658;9.166;2022-12-05T06:48:57;5.70;1.00
6496;DHT22;3281;47.658;9.166;2022-12-05T06:51:24;5.70;1.00
6496;DHT22;3281;47.658;9.166;2022-12-05T06:53:51;5.70;1.00
6496;DHT22;3281;47.658;9.166;2022-12-05T06:56:19;5.70;1.00
6496;DHT22;3281;47.658;9.166;2022-12-05T06:58:47;5.70;1.70
6496;DHT22;3281;47.658;9.166;2022-12-05T07:01:16;5.80;1.00
6496;DHT22;3281;47.658;9.166;2022-12-05T07:04:03;5.90;1.00
6496;DHT22;3281;47.658;9.166;2022-12-05T07:06:30;5.80;1.00
6496;DHT22;3281;47.658;9.166;2022-12-05T07:08:57;5.70;1.00
6496;DHT22;3281;47.658;9.166;2022-12-05T07:11:24;5.80;1.00
6496;DHT22;3281;47.658;9.166;2022-12-05T07:13:51;5.80;1.00
6496;DHT22;3281;47.658;9.166;2022-12-05T07:16:18;5.80;1.00
6496;DHT22;3281;47.658;9.166;2022-12-05T07:18:45;5.80;1.00
6496;DHT22;3281;47.658;9.166;2022-12-05T07:21:14;5.80;1.00
6496;DHT22;3281;47.658;9.166;2022-12-05T07:23:42;5.70;1.00
6496;DHT22;3281;47.658;9.166;2022-12-05T07:26:11;5.70;1.00
6496;DHT22;3281;47.658;9.166;2022-12-05T07:28:38;5.80;1.00
6496;DHT22;3281;47.658;9.166;2022-12-05T07:31:07;5.80;1.00
6496;DHT22;3281;47.658;9.166;2022-12-05T07:33:34;5.80;1.00
6496;DHT22;3281;47.658;9.166;2022-12-05T07:36:03;5.80;1.00
6496;DHT22;3281;47.658;9.166;2022-12-05T07:38:31;5.80;1.00
6496;DHT22;3281;47.658;9.166;2022-12-05T07:40:58;5.80;1.00
6496;DHT22;3281;47.658;9.166;2022-12-05T07:43:25;5.80;1.00
6496;DHT22;3281;47.658;9.166;2022-12-05T07:45:52;5.80;1.00
6496;DHT22;3281;47.658;9.166;2022-12-05T07:48:18;5.80;1.00
6496;DHT22;3281;47.658;9.166;2022-12-05T07:50:46;5.80;1.80
6496;DHT22;3281;47.658;9.166;2022-12-05T07:53:12;5.90;1.00
6496;DHT22;3281;47.658;9.166;2022-12-05T07:55:40;5.90;1.00
6496;DHT22;3281;47.658;9.166;2022-12-05T07:58:07;6.00;1.00
6496;DHT22;3281;47.658;9.166;2022-12-05T08:00:34;5.80;1.00
6496;DHT22;3281;47.658;9.166;2022-12-05T08:03:01;5.90;1.00
6496;DHT22;3281;47.658;9.166;2022-12-05T08:05:28;6.00;1.00
6496;DHT22;3281;47.658;9.166;2022-12-05T08:07:55;5.90;1.00
6496;DHT22;3281;47.658;9.166;2022-12-05T08:10:21;5.90;1.00
6496;DHT22;3281;47.658;9.166;2022-12-05T08:12:50;5.90;1.00
6496;DHT22;3281;47.658;9.166;2022-12-05T08:15:17;5.90;1.00
6496;DHT22;3281;47.658;9.166;2022-12-05T08:17:43;5.90;4.10
6496;DHT22;3281;47.658;9.166;2022-12-05T08:20:11;6.00;5.60
6496;DHT22;3281;47.658;9.166;2022-12-05T08:22:38;6.00;6.00
6496;DHT22;3281;47.658;9.166;2022-12-05T08:25:05;6.00;3.60
6496;DHT22;3281;47.658;9.166;2022-12-05T08:27:32;6.10;7.00
6496;DHT22;3281;47.658;9.166;2022-12-05T08:30:00;6.10;6.20
6496;DHT22;3281;47.658;9.166;2022-12-05T08:32:27;6.00;4.70
6496;DHT22;3281;47.658;9.166;2022-12-05T08:34:54;6.10;5.60
6496;DHT22;3281;47.658;9.166;2022-12-05T08:37:21;6.10;4.60
6496;DHT22;3281;47.658;9.166;2022-12-05T08:39:47;6.10;3.80
6496;DHT22;3281;47.658;9.166;2022-12-05T08:42:14;6.10;2.40
6496;DHT22;3281;47.658;9.166;2022-12-05T08:44:41;6.20;5.40
6496;DHT22;3281;47.658;9.166;2022-12-05T08:47:09;6.30;5.60
6496;DHT22;3281;47.658;9.166;2022-12-05T08:49:36;6.30;3.30
6496;DHT22;3281;47.658;9.166;2022-12-05T08:52:02;6.40;5.80
6496;DHT22;3281;47.658;9.166;2022-12-05T08:54:29;6.50;4.80
6496;DHT22;3281;47.658;9.166;2022-12-05T08:56:56;6.50;2.50
6496;DHT22;3281;47.658;9.166;2022-12-05T08:59:23;6.50;1.00
6496;DHT22;3281;47.658;9.166;2022-12-05T09:01:50;6.50;1.20
6496;DHT22;3281;47.658;9.166;2022-12-05T09:04:18;6.40;2.30
6496;DHT22;3281;47.658;9.166;2022-12-05T09:06:45;6.40;1.00
6496;DHT22;3281;47.658;9.166;2022-12-05T09:09:12;6.50;1.00
6496;DHT22;3281;47.658;9.166;2022-12-05T09:11:41;6.50;1.10
6496;DHT22;3281;47.658;9.166;2022-12-05T09:14:11;6.50;1.00
6496;DHT22;3281;47.658;9.166;2022-12-05T09:16:38;6.60;2.60
6496;DHT22;3281;47.658;9.166;2022-12-05T09:19:07;6.60;3.80
6496;DHT22;3281;47.658;9.166;2022-12-05T09:21:37;6.70;1.00
6496;DHT22;3281;47.658;9.166;2022-12-05T09:24:04;6.70;1.00
6496;DHT22;3281;47.658;9.166;2022-12-05T09:26:31;6.70;1.00
6496;DHT22;3281;47.658;9.166;2022-12-05T09:28:57;6.60;1.00
6496;DHT22;3281;47.658;9.166;2022-12-05T09:31:25;6.60;1.00
6496;DHT22;3281;47.658;9.166;2022-12-05T09:33:53;6.60;1.00
6496;DHT22;3281;47.658;9.166;2022-12-05T09:36:22;6.60;2.00
6496;DHT22;3281;47.658;9.166;2022-12-05T09:38:50;6.50;1.00
6496;DHT22;3281;47.658;9.166;2022-12-05T09:41:31;6.70;1.00
6496;DHT22;3281;47.658;9.166;2022-12-05T09:44:23;6.60;1.00
6496;DHT22;3281;47.658;9.166;2022-12-05T09:46:56;6.60;1.00
6496;DHT22;3281;47.658;9.166;2022-12-05T09:49:25;6.70;1.00
6496;DHT22;3281;47.658;9.166;2022-12-05T09:51:53;6.80;1.00
6496;DHT22;3281;47.658;9.166;2022-12-05T09:54:22;6.90;1.00
6496;DHT22;3281;47.658;9.166;2022-12-05T09:56:50;7.00;1.00
6496;DHT22;3281;47.658;9.166;2022-12-05T09:59:19;7.00;1.00
6496;DHT22;3281;47.658;9.166;2022-12-05T10:01:53;7.10;1.00
6496;DHT22;3281;47.658;9.166;2022-12-05T10:04:32;7.10;1.00
6496;DHT22;3281;47.658;9.166;2022-12-05T10:07:07;7.10;1.00
6496;DHT22;3281;47.658;9.166;2022-12-05T10:09:53;7.00;1.00
6496;DHT22;3281;47.658;9.166;2022-12-05T10:12:41;7.00;1.00
6496;DHT22;3281;47.658;9.166;2022-12-05T10:15:14;7.10;1.00
6496;DHT22;3281;47.658;9.166;2022-12-05T10:17:46;6.90;1.00
6496;DHT22;3281;47.658;9.166;2022-12-05T10:20:20;7.10;1.00
6496;DHT22;3281;47.658;9.166;2022-12-05T10:22:51;7.10;1.00
6496;DHT22;3281;47.658;9.166;2022-12-05T10:25:21;7.10;1.00
6496;DHT22;3281;47.658;9.166;2022-12-05T10:27:51;7.10;1.00
6496;DHT22;3281;47.658;9.166;2022-12-05T10:30:19;7.10;1.00
6496;DHT22;3281;47.658;9.166;2022-12-05T10:32:51;7.20;1.00
6496;DHT22;3281;47.658;9.166;2022-12-05T10:35:21;7.10;1.00
6496;DHT22;3281;47.658;9.166;2022-12-05T10:37:50;7.10;1.00
6496;DHT22;3281;47.658;9.166;2022-12-05T10:40:17;7.10;1.00
6496;DHT22;3281;47.658;9.166;2022-12-05T10:42:46;7.00;1.00
6496;DHT22;3281;47.658;9.166;2022-12-05T10:45:17;7.00;1.00
6496;DHT22;3281;47.658;9.166;2022-12-05T10:47:44;7.00;1.00
6496;DHT22;3281;47.658;9.166;2022-12-05T10:50:24;7.00;1.00
6496;DHT22;3281;47.658;9.166;2022-12-05T10:52:52;7.00;1.00
6496;DHT22;3281;47.658;9.166;2022-12-05T10:55:21;7.00;1.00
6496;DHT22;3281;47.658;9.166;2022-12-05T10:57:51;7.00;1.00
6496;DHT22;3281;47.658;9.166;2022-12-05T11:00:22;7.00;1.00
6496;DHT22;3281;47.658;9.166;2022-12-05T11:02:55;7.10;1.00
6496;DHT22;3281;47.658;9.166;2022-12-05T11:05:27;7.20;1.00
6496;DHT22;3281;47.658;9.166;2022-12-05T11:07:55;7.10;1.00
6496;DHT22;3281;47.658;9.166;2022-12-05T11:10:26;7.20;1.00
6496;DHT22;3281;47.658;9.166;2022-12-05T11:12:56;7.20;1.00
6496;DHT22;3281;47.658;9.166;2022-12-05T11:15:26;7.20;1.00
6496;DHT22;3281;47.658;9.166;2022-12-05T11:17:55;7.20;1.00
6496;DHT22;3281;47.658;9.166;2022-12-05T11:20:36;7.20;1.00
6496;DHT22;3281;47.658;9.166;2022-12-05T11:23:19;7.20;1.00
6496;DHT22;3281;47.658;9.166;2022-12-05T11:25:47;7.30;1.00
6496;DHT22;3281;47.658;9.166;2022-12-05T11:28:30;7.30;1.00
6496;DHT22;3281;47.658;9.166;2022-12-05T11:30:59;7.20;1.00
6496;DHT22;3281;47.658;9.166;2022-12-05T11:33:28;7.20;1.00
6496;DHT22;3281;47.658;9.166;2022-12-05T11:36:00;7.30;1.00
6496;DHT22;3281;47.658;9.166;2022-12-05T11:38:28;7.30;1.00
6496;DHT22;3281;47.658;9.166;2022-12-05T11:41:07;7.40;1.00
6496;DHT22;3281;47.658;9.166;2022-12-05T11:43:51;7.40;1.00
6496;DHT22;3281;47.658;9.166;2022-12-05T11:46:32;7.40;1.00
6496;DHT22;3281;47.658;9.166;2022-12-05T11:49:31;7.40;1.00
6496;DHT22;3281;47.658;9.166;2022-12-05T11:52:07;7.40;1.00
6496;DHT22;3281;47.658;9.166;2022-12-05T11:54:52;7.40;1.00
6496;DHT22;3281;47.658;9.166;2022-12-05T11:57:33;7.50;1.00
6496;DHT22;3281;47.658;9.166;2022-12-05T12:00:18;7.60;1.00
6496;DHT22;3281;47.658;9.166;2022-12-05T12:03:15;7.50;1.00
6496;DHT22;3281;47.658;9.166;2022-12-05T12:05:49;7.50;1.00
6496;DHT22;3281;47.658;9.166;2022-12-05T12:08:22;7.60;1.00
6496;DHT22;3281;47.658;9.166;2022-12-05T12:10:58;7.60;1.00
6496;DHT22;3281;47.658;9.166;2022-12-05T12:13:46;7.60;1.00
6496;DHT22;3281;47.658;9.166;2022-12-05T12:16:22;7.70;1.00
6496;DHT22;3281;47.658;9.166;2022-12-05T12:19:07;7.80;1.00
6496;DHT22;3281;47.658;9.166;2022-12-05T12:21:52;8.00;1.00
6496;DHT22;3281;47.658;9.166;2022-12-05T12:24:30;8.00;1.00
6496;DHT22;3281;47.658;9.166;2022-12-05T12:27:04;8.00;1.00
6496;DHT22;3281;47.658;9.166;2022-12-05T12:29:45;8.10;1.00
6496;DHT22;3281;47.658;9.166;2022-12-05T12:32:25;8.20;1.00
6496;DHT22;3281;47.658;9.166;2022-12-05T12:35:07;8.30;1.00
6496;DHT22;3281;47.658;9.166;2022-12-05T12:37:47;8.20;1.00
6496;DHT22;3281;47.658;9.166;2022-12-05T12:40:21;8.00;1.00
6496;DHT22;3281;47.658;9.166;2022-12-05T12:42:55;8.00;1.00
6496;DHT22;3281;47.658;9.166;2022-12-05T12:45:42;7.90;1.00
6496;DHT22;3281;47.658;9.166;2022-12-05T12:48:22;7.90;1.00
6496;DHT22;3281;47.658;9.166;2022-12-05T12:50:53;8.00;1.00
6496;DHT22;3281;47.658;9.166;2022-12-05T12:53:30;8.10;1.00
6496;DHT22;3281;47.658;9.166;2022-12-05T12:56:10;7.90;1.00
6496;DHT22;3281;47.658;9.166;2022-12-05T12:58:49;7.90;1.00
6496;DHT22;3281;47.658;9.166;2022-12-05T13:01:24;7.80;1.00
6496;DHT22;3281;47.658;9.166;2022-12-05T13:03:59;7.90;1.00
6496;DHT22;3281;47.658;9.166;2022-12-05T13:06:32;7.90;1.00
6496;DHT22;3281;47.658;9.166;2022-12-05T13:09:03;7.90;1.00
6496;DHT22;3281;47.658;9.166;2022-12-05T13:11:35;7.90;1.00
6496;DHT22;3281;47.658;9.166;2022-12-05T13:14:08;7.90;1.00
6496;DHT22;3281;47.658;9.166;2022-12-05T13:16:40;8.00;1.00
6496;DHT22;3281;47.658;9.166;2022-12-05T13:19:17;8.10;1.00
6496;DHT22;3281;47.658;9.166;2022-12-05T13:21:46;8.00;1.00
6496;DHT22;3281;47.658;9.166;2022-12-05T13:24:13;8.00;1.00
6496;DHT22;3281;47.658;9.166;2022-12-05T13:26:44;8.00;1.00
6496;DHT22;3281;47.658;9.166;2022-12-05T13:29:19;8.10;1.00
6496;DHT22;3281;47.658;9.166;2022-12-05T13:31:47;8.10;1.00
6496;DHT22;3281;47.658;9.166;2022-12-05T13:34:41;8.10;1.00
6496;DHT22;3281;47.658;9.166;2022-12-05T13:37:14;8.10;1.00
6496;DHT22;3281;47.658;9.166;2022-12-05T13:40:00;8.20;1.00
6496;DHT22;3281;47.658;9.166;2022-12-05T13:42:45;8.10;1.00
6496;DHT22;3281;47.658;9.166;2022-12-05T13:45:16;8.00;1.00
6496;DHT22;3281;47.658;9.166;2022-12-05T13:47:53;8.10;1.00
6496;DHT22;3281;47.658;9.166;2022-12-05T13:50:29;8.00;1.00
6496;DHT22;3281;47.658;9.166;2022-12-05T13:53:00;8.00;1.00
6496;DHT22;3281;47.658;9.166;2022-12-05T13:55:31;8.10;1.00
6496;DHT22;3281;47.658;9.166;2022-12-05T13:57:59;8.20;1.00
6496;DHT22;3281;47.658;9.166;2022-12-05T14:00:33;8.30;1.00
6496;DHT22;3281;47.658;9.166;2022-12-05T14:03:14;8.20;1.00
6496;DHT22;3281;47.658;9.166;2022-12-05T14:05:50;8.20;1.00
6496;DHT22;3281;47.658;9.166;2022-12-05T14:08:51;7.90;1.00
6496;DHT22;3281;47.658;9.166;2022-12-05T14:11:18;8.00;1.00
6496;DHT22;3281;47.658;9.166;2022-12-05T14:13:45;7.90;1.00
6496;DHT22;3281;47.658;9.166;2022-12-05T14:16:46;7.80;1.00
6496;DHT22;3281;47.658;9.166;2022-12-05T14:19:52;7.90;1.00
6496;DHT22;3281;47.658;9.166;2022-12-05T14:22:47;7.90;1.00
6496;DHT22;3281;47.658;9.166;2022-12-05T14:25:33;7.90;1.00
6496;DHT22;3281;47.658;9.166;2022-12-05T14:28:14;7.90;1.00
6496;DHT22;3281;47.658;9.166;2022-12-05T14:30:54;7.90;1.00
6496;DHT22;3281;47.658;9.166;2022-12-05T14:33:27;7.90;1.00
6496;DHT22;3281;47.658;9.166;2022-12-05T14:35:54;7.90;1.00
6496;DHT22;3281;47.658;9.166;2022-12-05T14:38:27;7.80;1.00
6496;DHT22;3281;47.658;9.166;2022-12-05T14:40:56;7.80;1.00
6496;DHT22;3281;47.658;9.166;2022-12-05T14:43:36;7.70;1.00
6496;DHT22;3281;47.658;9.166;2022-12-05T14:46:06;7.60;1.00
6496;DHT22;3281;47.658;9.166;2022-12-05T14:48:41;7.60;1.00
6496;DHT22;3281;47.658;9.166;2022-12-05T14:51:43;7.60;1.00
6496;DHT22;3281;47.658;9.166;2022-12-05T14:54:14;7.60;1.00
6496;DHT22;3281;47.658;9.166;2022-12-05T14:56:44;7.50;1.00
6496;DHT22;3281;47.658;9.166;2022-12-05T14:59:21;7.30;1.00
6496;DHT22;3281;47.658;9.166;2022-12-05T15:01:53;7.20;1.00
6496;DHT22;3281;47.658;9.166;2022-12-05T15:04:30;7.10;1.00
6496;DHT22;3281;47.658;9.166;2022-12-05T15:07:01;7.00;1.00
6496;DHT22;3281;47.658;9.166;2022-12-05T15:09:39;6.90;1.00
6496;DHT22;3281;47.658;9.166;2022-12-05T15:12:12;6.90;1.00
6496;DHT22;3281;47.658;9.166;2022-12-05T15:14:45;6.80;1.00
6496;DHT22;3281;47.658;9.166;2022-12-05T15:17:17;6.70;1.00
6496;DHT22;3281;47.658;9.166;2022-12-05T15:19:51;6.60;1.00
6496;DHT22;3281;47.658;9.166;2022-12-05T15:22:21;6.60;1.00
6496;DHT22;3281;47.658;9.166;2022-12-05T15:24:52;6.60;1.00
6496;DHT22;3281;47.658;9.166;2022-12-05T15:27:19;6.50;1.00
6496;DHT22;3281;47.658;9.166;2022-12-05T15:29:46;6.50;1.00
6496;DHT22;3281;47.658;9.166;2022-12-05T15:32:15;6.50;1.00
6496;DHT22;3281;47.658;9.166;2022-12-05T15:34:46;6.30;1.00
6496;DHT22;3281;47.658;9.166;2022-12-05T15:37:16;6.30;1.00
6496;DHT22;3281;47.658;9.166;2022-12-05T15:39:55;6.20;1.00
6496;DHT22;3281;47.658;9.166;2022-12-05T15:42:25;6.20;1.00
6496;DHT22;3281;47.658;9.166;2022-12-05T15:44:52;6.10;1.00
6496;DHT22;3281;47.658;9.166;2022-12-05T15:47:21;6.00;1.00
6496;DHT22;3281;47.658;9.166;2022-12-05T15:49:48;6.00;1.00
6496;DHT22;3281;47.658;9.166;2022-12-05T15:52:23;6.10;1.00
6496;DHT22;3281;47.658;9.166;2022-12-05T15:54:51;6.00;1.00
6496;DHT22;3281;47.658;9.166;2022-12-05T15:57:24;6.00;1.00
6496;DHT22;3281;47.658;9.166;2022-12-05T15:59:56;6.00;1.00
6496;DHT22;3281;47.658;9.166;2022-12-05T16:02:34;5.90;1.00
6496;DHT22;3281;47.658;9.166;2022-12-05T16:05:03;6.10;1.00
6496;DHT22;3281;47.658;9.166;2022-12-05T16:07:30;6.00;1.00
6496;DHT22;3281;47.658;9.166;2022-12-05T16:09:58;6.00;1.00
6496;DHT22;3281;47.658;9.166;2022-12-05T16:12:33;6.10;1.00
6496;DHT22;3281;47.658;9.166;2022-12-05T16:15:08;6.10;1.00
6496;DHT22;3281;47.658;9.166;2022-12-05T16:17:40;6.10;1.00
6496;DHT22;3281;47.658;9.166;2022-12-05T16:20:29;6.10;1.00
6496;DHT22;3281;47.658;9.166;2022-12-05T16:22:59;6.10;1.00
6496;DHT22;3281;47.658;9.166;2022-12-05T16:25:28;6.30;1.00
6496;DHT22;3281;47.658;9.166;2022-12-05T16:28:03;6.40;1.00
6496;DHT22;3281;47.658;9.166;2022-12-05T16:30:39;6.30;1.00
6496;DHT22;3281;47.658;9.166;2022-12-05T16:33:11;6.20;1.00
6496;DHT22;3281;47.658;9.166;2022-12-05T16:35:40;6.30;1.00
6496;DHT22;3281;47.658;9.166;2022-12-05T16:38:13;6.20;1.00
6496;DHT22;3281;47.658;9.166;2022-12-05T16:40:49;6.10;1.00
6496;DHT22;3281;47.658;9.166;2022-12-05T16:43:22;6.00;1.00
6496;DHT22;3281;47.658;9.166;2022-12-05T16:45:51;6.10;1.00
6496;DHT22;3281;47.658;9.166;2022-12-05T16:48:21;6.20;1.00
6496;DHT22;3281;47.658;9.166;2022-12-05T16:50:50;6.20;1.00
6496;DHT22;3281;47.658;9.166;2022-12-05T16:53:26;6.10;1.00
6496;DHT22;3281;47.658;9.166;2022-12-05T16:55:53;6.10;1.00
6496;DHT22;3281;47.658;9.166;2022-12-05T16:58:24;6.10;1.00
6496;DHT22;3281;47.658;9.166;2022-12-05T17:00:58;6.20;1.00
6496;DHT22;3281;47.658;9.166;2022-12-05T17:03:25;6.20;1.00
6496;DHT22;3281;47.658;9.166;2022-12-05T17:05:53;6.40;1.00
6496;DHT22;3281;47.658;9.166;2022-12-05T17:08:20;6.30;1.00
6496;DHT22;3281;47.658;9.166;2022-12-05T17:10:47;6.30;1.00
6496;DHT22;3281;47.658;9.166;2022-12-05T17:13:14;6.10;1.00